sensor_id;sensor_type;location;lat;lon;timestamp;P1;durP1;ratioP1;P2;durP2;ratioP2
16153;SDS011;8182;55.648;13.208;2024-03-08T00:00:18;9.90;;;6.60;;
16153;SDS011;8182;55.648;13.208;2024-03-08T00:02:45;9.87;;;6.47;;
16153;SDS011;8182;55.648;13.208;2024-03-08T00:05:13;10.80;;;6.80;;
16153;SDS011;8182;55.648;13.208;2024-03-08T00:07:41;10.33;;;6.23;;
16153;SDS011;8182;55.648;13.208;2024-03-08T00:10:09;10.93;;;6.73;;
16153;SDS011;8182;55.648;13.208;2024-03-08T00:12:38;9.87;;;6.07;;
16153;SDS011;8182;55.648;13.208;2024-03-08T00:15:07;8.83;;;5.90;;
16153;SDS011;8182;55.648;13.208;2024-03-08T00:17:37;9.87;;;6.27;;
16153;SDS011;8182;55.648;13.208;2024-03-08T00:20:04;10.17;;;6.63;;
16153;SDS011;8182;55.648;13.208;2024-03-08T00:22:33;11.90;;;6.50;;
16153;SDS011;8182;55.648;13.208;2024-03-08T00:25:00;9.23;;;6.30;;
16153;SDS011;8182;55.648;13.208;2024-03-08T00:27:28;9.00;;;6.73;;
16153;SDS011;8182;55.648;13.208;2024-03-08T00:29:56;9.63;;;6.50;;
16153;SDS011;8182;55.648;13.208;2024-03-08T00:32:23;9.57;;;6.40;;
16153;SDS011;8182;55.648;13.208;2024-03-08T00:34:51;10.10;;;5.97;;
16153;SDS011;8182;55.648;13.208;2024-03-08T00:37:19;8.47;;;6.00;;
16153;SDS011;8182;55.648;13.208;2024-03-08T00:39:46;9.67;;;6.03;;
16153;SDS011;8182;55.648;13.208;2024-03-08T00:42:12;8.40;;;6.30;;
16153;SDS011;8182;55.648;13.208;2024-03-08T00:44:39;9.53;;;6.20;;
16153;SDS011;8182;55.648;13.208;2024-03-08T00:47:06;8.03;;;5.90;;
16153;SDS011;8182;55.648;13.208;2024-03-08T00:49:33;8.20;;;6.10;;
16153;SDS011;8182;55.648;13.208;2024-03-08T00:52:03;9.43;;;5.90;;
16153;SDS011;8182;55.648;13.208;2024-03-08T00:54:31;10.67;;;6.17;;
16153;SDS011;8182;55.648;13.208;2024-03-08T00:56:58;8.83;;;6.47;;
16153;SDS011;8182;55.648;13.208;2024-03-08T00:59:25;8.93;;;5.93;;
16153;SDS011;8182;55.648;13.208;2024-03-08T01:01:52;11.23;;;6.37;;
16153;SDS011;8182;55.648;13.208;2024-03-08T01:04:19;8.67;;;5.80;;
16153;SDS011;8182;55.648;13.208;2024-03-08T01:06:46;9.90;;;6.33;;
16153;SDS011;8182;55.648;13.208;2024-03-08T01:09:17;7.73;;;5.93;;
16153;SDS011;8182;55.648;13.208;2024-03-08T01:11:45;8.50;;;6.23;;
16153;SDS011;8182;55.648;13.208;2024-03-08T01:14:12;7.27;;;5.87;;
16153;SDS011;8182;55.648;13.208;2024-03-08T01:16:39;9.23;;;6.30;;
16153;SDS011;8182;55.648;13.208;2024-03-08T01:19:06;7.73;;;5.90;;
16153;SDS011;8182;55.648;13.208;2024-03-08T01:21:33;8.47;;;6.00;;
16153;SDS011;8182;55.648;13.208;2024-03-08T01:24:00;8.30;;;6.10;;
16153;SDS011;8182;55.648;13.208;2024-03-08T01:26:29;9.17;;;6.20;;
16153;SDS011;8182;55.648;13.208;2024-03-08T01:28:56;8.63;;;5.97;;
16153;SDS011;8182;55.648;13.208;2024-03-08T01:31:23;8.87;;;5.70;;
16153;SDS011;8182;55.648;13.208;2024-03-08T01:33:50;10.70;;;6.50;;
16153;SDS011;8182;55.648;13.208;2024-03-08T01:36:16;7.73;;;5.63;;
16153;SDS011;8182;55.648;13.208;2024-03-08T01:38:44;6.83;;;5.63;;
16153;SDS011;8182;55.648;13.208;2024-03-08T01:41:11;10.00;;;5.47;;
16153;SDS011;8182;55.648;13.208;2024-03-08T01:43:40;7.63;;;5.70;;
16153;SDS011;8182;55.648;13.208;2024-03-08T01:46:07;9.60;;;5.87;;
16153;SDS011;8182;55.648;13.208;2024-03-08T01:48:37;9.10;;;6.00;;
16153;SDS011;8182;55.648;13.208;2024-03-08T01:51:06;8.87;;;6.20;;
16153;SDS011;8182;55.648;13.208;2024-03-08T01:53:33;7.13;;;6.00;;
16153;SDS011;8182;55.648;13.208;2024-03-08T01:56:01;8.00;;;5.70;;
16153;SDS011;8182;55.648;13.208;2024-03-08T01:58:29;8.23;;;5.90;;
16153;SDS011;8182;55.648;13.208;2024-03-08T02:00:59;8.00;;;5.77;;
16153;SDS011;8182;55.648;13.208;2024-03-08T02:03:30;7.73;;;5.77;;
16153;SDS011;8182;55.648;13.208;2024-03-08T02:05:57;9.57;;;6.53;;
16153;SDS011;8182;55.648;13.208;2024-03-08T02:08:25;7.50;;;5.70;;
16153;SDS011;8182;55.648;13.208;2024-03-08T02:10:52;9.37;;;6.10;;
16153;SDS011;8182;55.648;13.208;2024-03-08T02:13:19;8.57;;;5.47;;
16153;SDS011;8182;55.648;13.208;2024-03-08T02:15:52;9.03;;;5.67;;
16153;SDS011;8182;55.648;13.208;2024-03-08T02:18:21;6.87;;;5.67;;
16153;SDS011;8182;55.648;13.208;2024-03-08T02:20:50;8.33;;;5.07;;
16153;SDS011;8182;55.648;13.208;2024-03-08T02:23:18;8.43;;;5.50;;
16153;SDS011;8182;55.648;13.208;2024-03-08T02:25:45;8.73;;;5.80;;
16153;SDS011;8182;55.648;13.208;2024-03-08T02:28:12;7.10;;;5.40;;
16153;SDS011;8182;55.648;13.208;2024-03-08T02:30:40;8.67;;;5.47;;
16153;SDS011;8182;55.648;13.208;2024-03-08T02:33:07;10.20;;;5.77;;
16153;SDS011;8182;55.648;13.208;2024-03-08T02:35:35;8.53;;;5.50;;
16153;SDS011;8182;55.648;13.208;2024-03-08T02:38:03;8.07;;;5.77;;
16153;SDS011;8182;55.648;13.208;2024-03-08T02:40:30;8.83;;;6.00;;
16153;SDS011;8182;55.648;13.208;2024-03-08T02:42:57;7.63;;;5.40;;
16153;SDS011;8182;55.648;13.208;2024-03-08T02:45:24;9.23;;;5.50;;
16153;SDS011;8182;55.648;13.208;2024-03-08T02:47:51;7.40;;;5.87;;
16153;SDS011;8182;55.648;13.208;2024-03-08T02:50:18;7.63;;;5.47;;
16153;SDS011;8182;55.648;13.208;2024-03-08T02:52:45;9.00;;;5.40;;
16153;SDS011;8182;55.648;13.208;2024-03-08T02:55:15;9.60;;;5.97;;
16153;SDS011;8182;55.648;13.208;2024-03-08T02:57:42;9.20;;;5.53;;
16153;SDS011;8182;55.648;13.208;2024-03-08T03:00:12;8.47;;;5.43;;
16153;SDS011;8182;55.648;13.208;2024-03-08T03:02:40;7.87;;;5.40;;
16153;SDS011;8182;55.648;13.208;2024-03-08T03:05:07;7.90;;;6.07;;
16153;SDS011;8182;55.648;13.208;2024-03-08T03:07:36;9.13;;;5.57;;
16153;SDS011;8182;55.648;13.208;2024-03-08T03:10:03;8.50;;;6.03;;
16153;SDS011;8182;55.648;13.208;2024-03-08T03:12:33;10.43;;;6.23;;
16153;SDS011;8182;55.648;13.208;2024-03-08T03:15:00;9.97;;;6.30;;
16153;SDS011;8182;55.648;13.208;2024-03-08T03:17:27;8.93;;;6.30;;
16153;SDS011;8182;55.648;13.208;2024-03-08T03:19:53;8.40;;;6.07;;
16153;SDS011;8182;55.648;13.208;2024-03-08T03:22:20;9.70;;;6.33;;
16153;SDS011;8182;55.648;13.208;2024-03-08T03:24:48;7.80;;;6.07;;
16153;SDS011;8182;55.648;13.208;2024-03-08T03:27:16;8.93;;;6.30;;
16153;SDS011;8182;55.648;13.208;2024-03-08T03:29:46;9.03;;;5.97;;
16153;SDS011;8182;55.648;13.208;2024-03-08T03:32:14;10.03;;;6.10;;
16153;SDS011;8182;55.648;13.208;2024-03-08T03:34:44;8.67;;;6.17;;
16153;SDS011;8182;55.648;13.208;2024-03-08T03:37:11;9.30;;;6.10;;
16153;SDS011;8182;55.648;13.208;2024-03-08T03:39:38;7.60;;;5.40;;
16153;SDS011;8182;55.648;13.208;2024-03-08T03:42:13;8.87;;;6.50;;
16153;SDS011;8182;55.648;13.208;2024-03-08T03:44:41;10.73;;;5.83;;
16153;SDS011;8182;55.648;13.208;2024-03-08T03:47:11;9.13;;;6.37;;
16153;SDS011;8182;55.648;13.208;2024-03-08T03:49:38;7.73;;;5.50;;
16153;SDS011;8182;55.648;13.208;2024-03-08T03:52:05;6.77;;;5.60;;
16153;SDS011;8182;55.648;13.208;2024-03-08T03:54:32;8.63;;;6.13;;
16153;SDS011;8182;55.648;13.208;2024-03-08T03:56:59;8.33;;;5.77;;
16153;SDS011;8182;55.648;13.208;2024-03-08T03:59:27;7.83;;;5.83;;
16153;SDS011;8182;55.648;13.208;2024-03-08T04:01:54;9.07;;;5.70;;
16153;SDS011;8182;55.648;13.208;2024-03-08T04:04:23;6.43;;;5.17;;
16153;SDS011;8182;55.648;13.208;2024-03-08T04:06:50;8.27;;;5.30;;
16153;SDS011;8182;55.648;13.208;2024-03-08T04:09:17;10.10;;;5.90;;
16153;SDS011;8182;55.648;13.208;2024-03-08T04:11:44;7.73;;;5.63;;
16153;SDS011;8182;55.648;13.208;2024-03-08T04:14:11;7.13;;;5.53;;
16153;SDS011;8182;55.648;13.208;2024-03-08T04:16:38;7.73;;;5.50;;
16153;SDS011;8182;55.648;13.208;2024-03-08T04:19:05;8.43;;;6.00;;
16153;SDS011;8182;55.648;13.208;2024-03-08T04:21:34;8.57;;;5.70;;
16153;SDS011;8182;55.648;13.208;2024-03-08T04:24:01;7.23;;;5.73;;
16153;SDS011;8182;55.648;13.208;2024-03-08T04:26:28;8.67;;;5.77;;
16153;SDS011;8182;55.648;13.208;2024-03-08T04:28:55;7.33;;;5.40;;
16153;SDS011;8182;55.648;13.208;2024-03-08T04:31:22;7.37;;;5.43;;
16153;SDS011;8182;55.648;13.208;2024-03-08T04:33:49;8.33;;;5.40;;
16153;SDS011;8182;55.648;13.208;2024-03-08T04:36:16;8.97;;;5.13;;
16153;SDS011;8182;55.648;13.208;2024-03-08T04:38:44;5.70;;;4.80;;
16153;SDS011;8182;55.648;13.208;2024-03-08T04:41:11;8.43;;;5.50;;
16153;SDS011;8182;55.648;13.208;2024-03-08T04:43:39;7.27;;;5.60;;
16153;SDS011;8182;55.648;13.208;2024-03-08T04:46:06;7.40;;;5.50;;
16153;SDS011;8182;55.648;13.208;2024-03-08T04:48:33;9.87;;;5.90;;
16153;SDS011;8182;55.648;13.208;2024-03-08T04:51:02;8.70;;;5.33;;
16153;SDS011;8182;55.648;13.208;2024-03-08T04:53:29;9.40;;;5.70;;
16153;SDS011;8182;55.648;13.208;2024-03-08T04:55:59;8.23;;;5.50;;
16153;SDS011;8182;55.648;13.208;2024-03-08T04:58:31;8.30;;;5.33;;
16153;SDS011;8182;55.648;13.208;2024-03-08T05:00:59;6.87;;;5.10;;
16153;SDS011;8182;55.648;13.208;2024-03-08T05:03:26;10.07;;;6.00;;
16153;SDS011;8182;55.648;13.208;2024-03-08T05:05:53;6.77;;;4.80;;
16153;SDS011;8182;55.648;13.208;2024-03-08T05:08:21;6.93;;;5.33;;
16153;SDS011;8182;55.648;13.208;2024-03-08T05:10:48;7.53;;;5.03;;
16153;SDS011;8182;55.648;13.208;2024-03-08T05:13:16;7.17;;;5.47;;
16153;SDS011;8182;55.648;13.208;2024-03-08T05:15:47;8.30;;;5.40;;
16153;SDS011;8182;55.648;13.208;2024-03-08T05:18:15;7.63;;;4.97;;
16153;SDS011;8182;55.648;13.208;2024-03-08T05:20:42;9.80;;;5.30;;
16153;SDS011;8182;55.648;13.208;2024-03-08T05:23:08;7.17;;;5.17;;
16153;SDS011;8182;55.648;13.208;2024-03-08T05:25:35;7.97;;;5.53;;
16153;SDS011;8182;55.648;13.208;2024-03-08T05:28:02;7.47;;;5.10;;
16153;SDS011;8182;55.648;13.208;2024-03-08T05:30:31;9.30;;;5.83;;
16153;SDS011;8182;55.648;13.208;2024-03-08T05:32:58;8.93;;;5.80;;
16153;SDS011;8182;55.648;13.208;2024-03-08T05:35:25;7.70;;;5.13;;
16153;SDS011;8182;55.648;13.208;2024-03-08T05:37:52;9.33;;;5.37;;
16153;SDS011;8182;55.648;13.208;2024-03-08T05:40:19;7.40;;;5.70;;
16153;SDS011;8182;55.648;13.208;2024-03-08T05:42:46;7.37;;;5.43;;
16153;SDS011;8182;55.648;13.208;2024-03-08T05:45:12;9.37;;;5.53;;
16153;SDS011;8182;55.648;13.208;2024-03-08T05:47:41;8.07;;;5.47;;
16153;SDS011;8182;55.648;13.208;2024-03-08T05:50:08;6.93;;;5.37;;
16153;SDS011;8182;55.648;13.208;2024-03-08T05:52:36;12.03;;;6.00;;
16153;SDS011;8182;55.648;13.208;2024-03-08T05:55:04;6.83;;;5.03;;
16153;SDS011;8182;55.648;13.208;2024-03-08T05:57:32;6.80;;;5.17;;
16153;SDS011;8182;55.648;13.208;2024-03-08T05:59:59;7.47;;;5.20;;
16153;SDS011;8182;55.648;13.208;2024-03-08T06:02:26;6.20;;;5.03;;
16153;SDS011;8182;55.648;13.208;2024-03-08T06:04:54;7.13;;;4.93;;
16153;SDS011;8182;55.648;13.208;2024-03-08T06:07:21;8.83;;;5.77;;
16153;SDS011;8182;55.648;13.208;2024-03-08T06:09:48;9.63;;;5.37;;
16153;SDS011;8182;55.648;13.208;2024-03-08T06:12:14;7.70;;;5.30;;
16153;SDS011;8182;55.648;13.208;2024-03-08T06:14:43;7.07;;;4.90;;
16153;SDS011;8182;55.648;13.208;2024-03-08T06:17:11;6.90;;;5.17;;
16153;SDS011;8182;55.648;13.208;2024-03-08T06:19:38;7.33;;;5.30;;
16153;SDS011;8182;55.648;13.208;2024-03-08T06:22:06;6.90;;;4.80;;
16153;SDS011;8182;55.648;13.208;2024-03-08T06:24:34;6.53;;;4.60;;
16153;SDS011;8182;55.648;13.208;2024-03-08T06:27:03;9.93;;;5.33;;
16153;SDS011;8182;55.648;13.208;2024-03-08T06:29:30;6.77;;;4.90;;
16153;SDS011;8182;55.648;13.208;2024-03-08T06:31:57;9.17;;;5.20;;
16153;SDS011;8182;55.648;13.208;2024-03-08T06:34:25;12.60;;;5.60;;
16153;SDS011;8182;55.648;13.208;2024-03-08T06:36:52;9.53;;;5.27;;
16153;SDS011;8182;55.648;13.208;2024-03-08T06:39:27;8.07;;;5.17;;
16153;SDS011;8182;55.648;13.208;2024-03-08T06:41:56;9.40;;;5.23;;
16153;SDS011;8182;55.648;13.208;2024-03-08T06:44:23;6.43;;;4.87;;
16153;SDS011;8182;55.648;13.208;2024-03-08T06:46:50;8.10;;;5.60;;
16153;SDS011;8182;55.648;13.208;2024-03-08T06:49:17;8.07;;;5.43;;
16153;SDS011;8182;55.648;13.208;2024-03-08T06:51:44;5.80;;;5.03;;
16153;SDS011;8182;55.648;13.208;2024-03-08T06:54:11;9.87;;;6.30;;
16153;SDS011;8182;55.648;13.208;2024-03-08T06:56:40;6.73;;;5.50;;
16153;SDS011;8182;55.648;13.208;2024-03-08T06:59:06;10.53;;;5.63;;
16153;SDS011;8182;55.648;13.208;2024-03-08T07:01:35;8.90;;;6.27;;
16153;SDS011;8182;55.648;13.208;2024-03-08T07:04:03;8.03;;;5.33;;
16153;SDS011;8182;55.648;13.208;2024-03-08T07:06:31;9.10;;;5.80;;
16153;SDS011;8182;55.648;13.208;2024-03-08T07:08:59;7.97;;;5.77;;
16153;SDS011;8182;55.648;13.208;2024-03-08T07:11:26;7.50;;;5.40;;
16153;SDS011;8182;55.648;13.208;2024-03-08T07:13:54;8.43;;;5.63;;
16153;SDS011;8182;55.648;13.208;2024-03-08T07:16:22;8.53;;;5.80;;
16153;SDS011;8182;55.648;13.208;2024-03-08T07:18:49;8.43;;;5.43;;
16153;SDS011;8182;55.648;13.208;2024-03-08T07:21:17;10.27;;;6.10;;
16153;SDS011;8182;55.648;13.208;2024-03-08T07:23:45;9.57;;;6.20;;
16153;SDS011;8182;55.648;13.208;2024-03-08T07:26:38;11.67;;;5.57;;
16153;SDS011;8182;55.648;13.208;2024-03-08T07:29:06;6.20;;;4.97;;
16153;SDS011;8182;55.648;13.208;2024-03-08T07:31:34;6.10;;;5.13;;
16153;SDS011;8182;55.648;13.208;2024-03-08T07:34:10;7.17;;;4.80;;
16153;SDS011;8182;55.648;13.208;2024-03-08T07:36:37;8.57;;;4.57;;
16153;SDS011;8182;55.648;13.208;2024-03-08T07:39:04;6.00;;;4.30;;
16153;SDS011;8182;55.648;13.208;2024-03-08T07:41:36;6.07;;;4.67;;
16153;SDS011;8182;55.648;13.208;2024-03-08T07:44:06;6.20;;;4.10;;
16153;SDS011;8182;55.648;13.208;2024-03-08T07:46:40;7.23;;;3.93;;
16153;SDS011;8182;55.648;13.208;2024-03-08T07:49:07;9.60;;;4.23;;
16153;SDS011;8182;55.648;13.208;2024-03-08T07:51:36;5.93;;;4.30;;
16153;SDS011;8182;55.648;13.208;2024-03-08T07:54:03;7.50;;;4.13;;
16153;SDS011;8182;55.648;13.208;2024-03-08T07:56:30;7.17;;;4.47;;
16153;SDS011;8182;55.648;13.208;2024-03-08T07:58:57;7.13;;;4.53;;
16153;SDS011;8182;55.648;13.208;2024-03-08T08:01:25;6.60;;;4.63;;
16153;SDS011;8182;55.648;13.208;2024-03-08T08:03:52;6.77;;;4.60;;
16153;SDS011;8182;55.648;13.208;2024-03-08T08:06:19;5.40;;;4.33;;
16153;SDS011;8182;55.648;13.208;2024-03-08T08:08:46;6.17;;;4.57;;
16153;SDS011;8182;55.648;13.208;2024-03-08T08:11:12;8.73;;;4.83;;
16153;SDS011;8182;55.648;13.208;2024-03-08T08:13:40;9.03;;;4.80;;
16153;SDS011;8182;55.648;13.208;2024-03-08T08:16:08;8.40;;;4.60;;
16153;SDS011;8182;55.648;13.208;2024-03-08T08:18:36;7.10;;;4.90;;
16153;SDS011;8182;55.648;13.208;2024-03-08T08:21:04;8.87;;;5.20;;
16153;SDS011;8182;55.648;13.208;2024-03-08T08:23:31;7.10;;;4.87;;
16153;SDS011;8182;55.648;13.208;2024-03-08T08:25:58;6.73;;;4.80;;
16153;SDS011;8182;55.648;13.208;2024-03-08T08:28:28;6.80;;;4.77;;
16153;SDS011;8182;55.648;13.208;2024-03-08T08:30:55;7.07;;;4.60;;
16153;SDS011;8182;55.648;13.208;2024-03-08T08:33:24;6.37;;;4.77;;
16153;SDS011;8182;55.648;13.208;2024-03-08T08:35:53;5.83;;;4.63;;
16153;SDS011;8182;55.648;13.208;2024-03-08T08:38:20;8.00;;;5.13;;
16153;SDS011;8182;55.648;13.208;2024-03-08T08:40:48;5.87;;;4.00;;
16153;SDS011;8182;55.648;13.208;2024-03-08T08:43:15;6.13;;;4.30;;
16153;SDS011;8182;55.648;13.208;2024-03-08T08:45:42;5.50;;;3.93;;
16153;SDS011;8182;55.648;13.208;2024-03-08T08:48:12;4.93;;;4.03;;
16153;SDS011;8182;55.648;13.208;2024-03-08T08:50:39;5.47;;;4.17;;
16153;SDS011;8182;55.648;13.208;2024-03-08T08:53:08;5.03;;;4.17;;
16153;SDS011;8182;55.648;13.208;2024-03-08T08:55:35;5.53;;;4.00;;
16153;SDS011;8182;55.648;13.208;2024-03-08T08:58:02;6.13;;;4.27;;
16153;SDS011;8182;55.648;13.208;2024-03-08T09:00:29;5.97;;;4.40;;
16153;SDS011;8182;55.648;13.208;2024-03-08T09:02:57;5.37;;;3.90;;
16153;SDS011;8182;55.648;13.208;2024-03-08T09:05:24;4.97;;;4.00;;
16153;SDS011;8182;55.648;13.208;2024-03-08T09:07:52;4.97;;;4.23;;
16153;SDS011;8182;55.648;13.208;2024-03-08T09:10:20;6.37;;;4.37;;
16153;SDS011;8182;55.648;13.208;2024-03-08T09:12:47;6.77;;;3.90;;
16153;SDS011;8182;55.648;13.208;2024-03-08T09:15:14;4.10;;;3.70;;
16153;SDS011;8182;55.648;13.208;2024-03-08T09:17:45;5.77;;;4.17;;
16153;SDS011;8182;55.648;13.208;2024-03-08T09:20:16;4.63;;;3.93;;
16153;SDS011;8182;55.648;13.208;2024-03-08T09:22:43;5.73;;;3.73;;
16153;SDS011;8182;55.648;13.208;2024-03-08T09:25:10;7.97;;;4.27;;
16153;SDS011;8182;55.648;13.208;2024-03-08T09:27:39;4.97;;;4.23;;
16153;SDS011;8182;55.648;13.208;2024-03-08T09:30:06;4.60;;;3.90;;
16153;SDS011;8182;55.648;13.208;2024-03-08T09:32:34;6.37;;;3.80;;
16153;SDS011;8182;55.648;13.208;2024-03-08T09:35:02;4.70;;;3.73;;
16153;SDS011;8182;55.648;13.208;2024-03-08T09:37:32;6.43;;;3.80;;
16153;SDS011;8182;55.648;13.208;2024-03-08T09:39:58;6.90;;;4.03;;
16153;SDS011;8182;55.648;13.208;2024-03-08T09:42:29;4.23;;;3.60;;
16153;SDS011;8182;55.648;13.208;2024-03-08T09:44:58;7.33;;;3.53;;
16153;SDS011;8182;55.648;13.208;2024-03-08T09:47:25;4.03;;;3.40;;
16153;SDS011;8182;55.648;13.208;2024-03-08T09:49:58;5.40;;;3.50;;
16153;SDS011;8182;55.648;13.208;2024-03-08T09:52:26;4.43;;;3.40;;
16153;SDS011;8182;55.648;13.208;2024-03-08T09:54:55;8.03;;;3.50;;
16153;SDS011;8182;55.648;13.208;2024-03-08T09:57:23;5.87;;;3.53;;
16153;SDS011;8182;55.648;13.208;2024-03-08T09:59:51;8.23;;;3.90;;
16153;SDS011;8182;55.648;13.208;2024-03-08T10:02:19;5.93;;;3.47;;
16153;SDS011;8182;55.648;13.208;2024-03-08T10:04:46;4.43;;;3.40;;
16153;SDS011;8182;55.648;13.208;2024-03-08T10:07:13;4.63;;;3.27;;
16153;SDS011;8182;55.648;13.208;2024-03-08T10:09:43;5.70;;;3.20;;
16153;SDS011;8182;55.648;13.208;2024-03-08T10:12:15;5.87;;;3.33;;
16153;SDS011;8182;55.648;13.208;2024-03-08T10:14:42;3.33;;;2.90;;
16153;SDS011;8182;55.648;13.208;2024-03-08T10:17:10;3.27;;;2.80;;
16153;SDS011;8182;55.648;13.208;2024-03-08T10:19:38;4.13;;;3.20;;
16153;SDS011;8182;55.648;13.208;2024-03-08T10:22:05;4.57;;;3.43;;
16153;SDS011;8182;55.648;13.208;2024-03-08T10:24:32;4.40;;;3.43;;
16153;SDS011;8182;55.648;13.208;2024-03-08T10:27:00;4.60;;;3.20;;
16153;SDS011;8182;55.648;13.208;2024-03-08T10:29:29;4.27;;;3.40;;
16153;SDS011;8182;55.648;13.208;2024-03-08T10:31:57;4.40;;;3.30;;
16153;SDS011;8182;55.648;13.208;2024-03-08T10:34:24;5.97;;;3.20;;
16153;SDS011;8182;55.648;13.208;2024-03-08T10:36:52;6.33;;;2.73;;
16153;SDS011;8182;55.648;13.208;2024-03-08T10:39:21;5.93;;;2.50;;
16153;SDS011;8182;55.648;13.208;2024-03-08T10:41:51;3.63;;;2.50;;
16153;SDS011;8182;55.648;13.208;2024-03-08T10:44:40;3.70;;;2.77;;
16153;SDS011;8182;55.648;13.208;2024-03-08T10:47:18;2.60;;;2.40;;
16153;SDS011;8182;55.648;13.208;2024-03-08T10:49:51;4.80;;;2.80;;
16153;SDS011;8182;55.648;13.208;2024-03-08T10:52:22;2.80;;;2.33;;
16153;SDS011;8182;55.648;13.208;2024-03-08T10:54:50;5.33;;;2.53;;
16153;SDS011;8182;55.648;13.208;2024-03-08T10:57:20;4.20;;;2.40;;
16153;SDS011;8182;55.648;13.208;2024-03-08T10:59:50;3.40;;;2.47;;
16153;SDS011;8182;55.648;13.208;2024-03-08T11:02:17;3.50;;;2.23;;
16153;SDS011;8182;55.648;13.208;2024-03-08T11:04:46;3.07;;;2.40;;
16153;SDS011;8182;55.648;13.208;2024-03-08T11:07:15;3.13;;;2.50;;
16153;SDS011;8182;55.648;13.208;2024-03-08T11:09:48;3.03;;;2.37;;
16153;SDS011;8182;55.648;13.208;2024-03-08T11:12:18;5.50;;;1.80;;
16153;SDS011;8182;55.648;13.208;2024-03-08T11:14:51;3.43;;;2.60;;
16153;SDS011;8182;55.648;13.208;2024-03-08T11:17:25;4.00;;;2.70;;
16153;SDS011;8182;55.648;13.208;2024-03-08T11:20:08;3.47;;;2.70;;
16153;SDS011;8182;55.648;13.208;2024-03-08T11:22:40;6.80;;;2.57;;
16153;SDS011;8182;55.648;13.208;2024-03-08T11:28:06;6.33;;;3.10;;
16153;SDS011;8182;55.648;13.208;2024-03-08T11:30:34;3.43;;;2.30;;
16153;SDS011;8182;55.648;13.208;2024-03-08T11:33:03;4.47;;;2.60;;
16153;SDS011;8182;55.648;13.208;2024-03-08T11:35:30;3.83;;;2.30;;
16153;SDS011;8182;55.648;13.208;2024-03-08T11:37:57;3.70;;;2.27;;
16153;SDS011;8182;55.648;13.208;2024-03-08T11:40:26;4.63;;;2.13;;
16153;SDS011;8182;55.648;13.208;2024-03-08T11:42:53;4.97;;;2.17;;
16153;SDS011;8182;55.648;13.208;2024-03-08T11:45:20;5.10;;;2.43;;
16153;SDS011;8182;55.648;13.208;2024-03-08T11:47:47;5.00;;;2.30;;
16153;SDS011;8182;55.648;13.208;2024-03-08T11:50:14;4.20;;;2.00;;
16153;SDS011;8182;55.648;13.208;2024-03-08T11:52:43;4.50;;;2.10;;
16153;SDS011;8182;55.648;13.208;2024-03-08T11:55:11;2.93;;;2.40;;
16153;SDS011;8182;55.648;13.208;2024-03-08T11:57:40;2.70;;;2.40;;
16153;SDS011;8182;55.648;13.208;2024-03-08T12:00:11;4.90;;;2.50;;
16153;SDS011;8182;55.648;13.208;2024-03-08T12:02:47;3.27;;;2.17;;
16153;SDS011;8182;55.648;13.208;2024-03-08T12:05:28;6.17;;;2.50;;
16153;SDS011;8182;55.648;13.208;2024-03-08T12:07:56;3.90;;;2.97;;
16153;SDS011;8182;55.648;13.208;2024-03-08T12:10:23;3.13;;;2.50;;
16153;SDS011;8182;55.648;13.208;2024-03-08T12:12:52;3.30;;;2.70;;
16153;SDS011;8182;55.648;13.208;2024-03-08T12:15:21;3.03;;;2.20;;
16153;SDS011;8182;55.648;13.208;2024-03-08T12:17:50;3.40;;;2.30;;
16153;SDS011;8182;55.648;13.208;2024-03-08T12:20:18;2.50;;;2.20;;
16153;SDS011;8182;55.648;13.208;2024-03-08T12:22:47;2.77;;;2.10;;
16153;SDS011;8182;55.648;13.208;2024-03-08T12:25:17;2.67;;;2.27;;
16153;SDS011;8182;55.648;13.208;2024-03-08T12:27:45;3.83;;;2.30;;
16153;SDS011;8182;55.648;13.208;2024-03-08T12:30:18;2.70;;;2.00;;
16153;SDS011;8182;55.648;13.208;2024-03-08T12:32:51;2.37;;;2.00;;
16153;SDS011;8182;55.648;13.208;2024-03-08T12:35:21;2.30;;;2.03;;
16153;SDS011;8182;55.648;13.208;2024-03-08T12:37:50;2.10;;;1.90;;
16153;SDS011;8182;55.648;13.208;2024-03-08T12:40:18;1.93;;;1.83;;
16153;SDS011;8182;55.648;13.208;2024-03-08T12:42:46;2.07;;;1.87;;
16153;SDS011;8182;55.648;13.208;2024-03-08T12:45:13;2.23;;;1.83;;
16153;SDS011;8182;55.648;13.208;2024-03-08T12:47:47;2.77;;;2.00;;
16153;SDS011;8182;55.648;13.208;2024-03-08T12:50:14;4.67;;;2.10;;
16153;SDS011;8182;55.648;13.208;2024-03-08T12:52:41;2.50;;;1.77;;
16153;SDS011;8182;55.648;13.208;2024-03-08T12:55:09;2.40;;;1.77;;
16153;SDS011;8182;55.648;13.208;2024-03-08T12:57:36;3.07;;;1.70;;
16153;SDS011;8182;55.648;13.208;2024-03-08T13:00:04;3.27;;;2.03;;
16153;SDS011;8182;55.648;13.208;2024-03-08T13:02:39;1.70;;;1.60;;
16153;SDS011;8182;55.648;13.208;2024-03-08T13:05:07;1.90;;;1.70;;
16153;SDS011;8182;55.648;13.208;2024-03-08T13:07:35;2.00;;;1.90;;
16153;SDS011;8182;55.648;13.208;2024-03-08T13:10:03;2.43;;;2.10;;
16153;SDS011;8182;55.648;13.208;2024-03-08T13:12:32;1.80;;;1.70;;
16153;SDS011;8182;55.648;13.208;2024-03-08T13:15:01;3.20;;;2.10;;
16153;SDS011;8182;55.648;13.208;2024-03-08T13:17:30;1.80;;;1.70;;
16153;SDS011;8182;55.648;13.208;2024-03-08T13:19:58;1.60;;;1.50;;
16153;SDS011;8182;55.648;13.208;2024-03-08T13:22:25;1.50;;;1.40;;
16153;SDS011;8182;55.648;13.208;2024-03-08T13:24:53;2.57;;;1.50;;
16153;SDS011;8182;55.648;13.208;2024-03-08T13:27:22;1.73;;;1.40;;
16153;SDS011;8182;55.648;13.208;2024-03-08T13:29:50;2.70;;;1.50;;
16153;SDS011;8182;55.648;13.208;2024-03-08T13:32:17;1.67;;;1.50;;
16153;SDS011;8182;55.648;13.208;2024-03-08T13:34:45;1.70;;;1.40;;
16153;SDS011;8182;55.648;13.208;2024-03-08T13:37:17;1.60;;;1.30;;
16153;SDS011;8182;55.648;13.208;2024-03-08T13:39:44;1.30;;;1.20;;
16153;SDS011;8182;55.648;13.208;2024-03-08T13:42:11;1.57;;;1.47;;
16153;SDS011;8182;55.648;13.208;2024-03-08T13:44:43;1.53;;;1.43;;
16153;SDS011;8182;55.648;13.208;2024-03-08T13:47:13;1.60;;;1.50;;
16153;SDS011;8182;55.648;13.208;2024-03-08T13:49:41;3.20;;;1.57;;
16153;SDS011;8182;55.648;13.208;2024-03-08T13:52:09;1.80;;;1.50;;
16153;SDS011;8182;55.648;13.208;2024-03-08T13:54:38;1.47;;;1.37;;
16153;SDS011;8182;55.648;13.208;2024-03-08T13:57:06;1.40;;;1.30;;
16153;SDS011;8182;55.648;13.208;2024-03-08T13:59:33;1.73;;;1.63;;
16153;SDS011;8182;55.648;13.208;2024-03-08T14:02:02;1.83;;;1.40;;
16153;SDS011;8182;55.648;13.208;2024-03-08T14:04:29;2.57;;;1.77;;
16153;SDS011;8182;55.648;13.208;2024-03-08T14:06:56;2.00;;;1.70;;
16153;SDS011;8182;55.648;13.208;2024-03-08T14:09:28;1.90;;;1.50;;
16153;SDS011;8182;55.648;13.208;2024-03-08T14:11:57;3.40;;;1.60;;
16153;SDS011;8182;55.648;13.208;2024-03-08T14:14:24;1.73;;;1.50;;
16153;SDS011;8182;55.648;13.208;2024-03-08T14:16:51;2.10;;;1.60;;
16153;SDS011;8182;55.648;13.208;2024-03-08T14:19:20;1.60;;;1.50;;
16153;SDS011;8182;55.648;13.208;2024-03-08T14:21:47;2.13;;;1.60;;
16153;SDS011;8182;55.648;13.208;2024-03-08T14:24:14;1.90;;;1.80;;
16153;SDS011;8182;55.648;13.208;2024-03-08T14:26:41;1.67;;;1.57;;
16153;SDS011;8182;55.648;13.208;2024-03-08T14:29:10;3.20;;;1.90;;
16153;SDS011;8182;55.648;13.208;2024-03-08T14:31:37;1.70;;;1.53;;
16153;SDS011;8182;55.648;13.208;2024-03-08T14:34:06;1.90;;;1.80;;
16153;SDS011;8182;55.648;13.208;2024-03-08T14:36:34;2.13;;;1.90;;
16153;SDS011;8182;55.648;13.208;2024-03-08T14:39:01;2.73;;;1.70;;
16153;SDS011;8182;55.648;13.208;2024-03-08T14:41:28;4.07;;;1.97;;
16153;SDS011;8182;55.648;13.208;2024-03-08T14:43:56;4.93;;;2.10;;
16153;SDS011;8182;55.648;13.208;2024-03-08T14:46:24;2.70;;;1.93;;
16153;SDS011;8182;55.648;13.208;2024-03-08T14:48:52;2.40;;;2.07;;
16153;SDS011;8182;55.648;13.208;2024-03-08T14:51:19;2.30;;;1.93;;
16153;SDS011;8182;55.648;13.208;2024-03-08T14:53:51;2.17;;;1.90;;
16153;SDS011;8182;55.648;13.208;2024-03-08T14:56:19;2.70;;;2.27;;